Cummings, Kansas
Current Conditions -  °F | °C
As of 2:53 AM on Saturday 22 Nov 2014 (Local Time) from KSTJ Reporting Station
Haze Haze  
Wind Chill: 39°   Ceiling: 400
Heat Index: 43°   Visibility: 2mi
Dew Point: 42°   Wind: 6mph
Humidity: 97%   Direction: 270°W
Pressure: 30.01"   Gusts: NA
Location:  39.46°N, 95.25°W
Report Text: KSTJ 220853Z AUTO 27005KT 2SM BR OVC004 06/06 A3001 RMK AO2 SLP164 T00610056 56003
Loading
Personal Weather Stations






























Interactive Weather Map New forecast layout! Learn more

10-Day Weather Forecast

Advertisements
Track Severe Weather on mobile